sensor_id;sensor_type;location;lat;lon;timestamp;P1;durP1;ratioP1;P2;durP2;ratioP2
22111;SDS011;11222;50.872;4.312;2023-07-28T00:01:40;8.35;;;6.22;;
22111;SDS011;11222;50.872;4.312;2023-07-28T00:04:05;8.73;;;6.20;;
22111;SDS011;11222;50.872;4.312;2023-07-28T00:06:32;8.52;;;6.40;;
22111;SDS011;11222;50.872;4.312;2023-07-28T00:08:58;8.95;;;6.35;;
22111;SDS011;11222;50.872;4.312;2023-07-28T00:11:24;8.13;;;6.40;;
22111;SDS011;11222;50.872;4.312;2023-07-28T00:13:49;8.35;;;6.70;;
22111;SDS011;11222;50.872;4.312;2023-07-28T00:16:15;8.88;;;6.25;;
22111;SDS011;11222;50.872;4.312;2023-07-28T00:18:41;11.15;;;7.10;;
22111;SDS011;11222;50.872;4.312;2023-07-28T00:21:06;10.13;;;6.65;;
22111;SDS011;11222;50.872;4.312;2023-07-28T00:23:32;8.43;;;6.07;;
22111;SDS011;11222;50.872;4.312;2023-07-28T00:25:58;11.40;;;7.20;;
22111;SDS011;11222;50.872;4.312;2023-07-28T00:28:23;9.30;;;6.95;;
22111;SDS011;11222;50.872;4.312;2023-07-28T00:30:49;8.25;;;6.80;;
22111;SDS011;11222;50.872;4.312;2023-07-28T00:33:15;9.90;;;7.10;;
22111;SDS011;11222;50.872;4.312;2023-07-28T00:35:41;11.13;;;6.80;;
22111;SDS011;11222;50.872;4.312;2023-07-28T00:38:06;9.38;;;6.90;;
22111;SDS011;11222;50.872;4.312;2023-07-28T00:40:32;9.38;;;7.03;;
22111;SDS011;11222;50.872;4.312;2023-07-28T00:42:58;10.07;;;7.13;;
22111;SDS011;11222;50.872;4.312;2023-07-28T00:45:23;9.18;;;6.82;;
22111;SDS011;11222;50.872;4.312;2023-07-28T00:47:50;10.00;;;7.28;;
22111;SDS011;11222;50.872;4.312;2023-07-28T00:50:15;9.32;;;6.70;;
22111;SDS011;11222;50.872;4.312;2023-07-28T00:52:41;9.85;;;6.78;;
22111;SDS011;11222;50.872;4.312;2023-07-28T00:55:07;13.40;;;7.22;;
22111;SDS011;11222;50.872;4.312;2023-07-28T00:57:33;10.23;;;6.60;;
22111;SDS011;11222;50.872;4.312;2023-07-28T00:59:59;8.98;;;6.93;;
22111;SDS011;11222;50.872;4.312;2023-07-28T01:02:25;10.98;;;7.72;;
22111;SDS011;11222;50.872;4.312;2023-07-28T01:04:51;10.20;;;7.68;;
22111;SDS011;11222;50.872;4.312;2023-07-28T01:07:19;10.90;;;7.40;;
22111;SDS011;11222;50.872;4.312;2023-07-28T01:09:47;11.55;;;7.45;;
22111;SDS011;11222;50.872;4.312;2023-07-28T01:12:15;13.18;;;7.88;;
22111;SDS011;11222;50.872;4.312;2023-07-28T01:14:41;11.68;;;7.63;;
22111;SDS011;11222;50.872;4.312;2023-07-28T01:17:08;13.88;;;8.50;;
22111;SDS011;11222;50.872;4.312;2023-07-28T01:19:34;13.13;;;8.23;;
22111;SDS011;11222;50.872;4.312;2023-07-28T01:22:13;12.93;;;9.10;;
22111;SDS011;11222;50.872;4.312;2023-07-28T01:24:55;15.38;;;8.80;;
22111;SDS011;11222;50.872;4.312;2023-07-28T01:27:34;14.02;;;9.32;;
22111;SDS011;11222;50.872;4.312;2023-07-28T01:30:02;13.45;;;8.48;;
22111;SDS011;11222;50.872;4.312;2023-07-28T01:32:28;15.63;;;8.85;;
22111;SDS011;11222;50.872;4.312;2023-07-28T01:34:54;11.30;;;8.32;;
22111;SDS011;11222;50.872;4.312;2023-07-28T01:37:19;15.38;;;8.98;;
22111;SDS011;11222;50.872;4.312;2023-07-28T01:39:45;16.50;;;9.15;;
22111;SDS011;11222;50.872;4.312;2023-07-28T01:42:10;14.98;;;9.75;;
22111;SDS011;11222;50.872;4.312;2023-07-28T01:44:36;12.90;;;9.55;;
22111;SDS011;11222;50.872;4.312;2023-07-28T01:47:02;14.35;;;9.15;;
22111;SDS011;11222;50.872;4.312;2023-07-28T01:49:27;15.82;;;9.02;;
22111;SDS011;11222;50.872;4.312;2023-07-28T01:51:53;13.60;;;9.45;;
22111;SDS011;11222;50.872;4.312;2023-07-28T01:54:19;14.65;;;8.80;;
22111;SDS011;11222;50.872;4.312;2023-07-28T01:56:44;16.73;;;9.13;;
22111;SDS011;11222;50.872;4.312;2023-07-28T01:59:10;12.27;;;9.05;;
22111;SDS011;11222;50.872;4.312;2023-07-28T02:01:36;13.57;;;9.18;;
22111;SDS011;11222;50.872;4.312;2023-07-28T02:04:01;15.00;;;9.23;;
22111;SDS011;11222;50.872;4.312;2023-07-28T02:06:27;14.98;;;8.73;;
22111;SDS011;11222;50.872;4.312;2023-07-28T02:08:53;17.27;;;9.20;;
22111;SDS011;11222;50.872;4.312;2023-07-28T02:11:18;13.30;;;8.75;;
22111;SDS011;11222;50.872;4.312;2023-07-28T02:13:44;16.20;;;9.27;;
22111;SDS011;11222;50.872;4.312;2023-07-28T02:16:09;15.35;;;9.25;;
22111;SDS011;11222;50.872;4.312;2023-07-28T02:18:35;12.32;;;8.98;;
22111;SDS011;11222;50.872;4.312;2023-07-28T02:21:01;14.90;;;8.65;;
22111;SDS011;11222;50.872;4.312;2023-07-28T02:23:26;12.70;;;8.50;;
22111;SDS011;11222;50.872;4.312;2023-07-28T02:25:52;12.85;;;8.77;;
22111;SDS011;11222;50.872;4.312;2023-07-28T02:28:17;13.98;;;8.80;;
22111;SDS011;11222;50.872;4.312;2023-07-28T02:30:43;15.02;;;9.57;;
22111;SDS011;11222;50.872;4.312;2023-07-28T02:33:09;13.25;;;8.60;;
22111;SDS011;11222;50.872;4.312;2023-07-28T02:35:34;15.05;;;9.40;;
22111;SDS011;11222;50.872;4.312;2023-07-28T02:38:01;17.98;;;10.13;;
22111;SDS011;11222;50.872;4.312;2023-07-28T02:40:27;15.52;;;9.82;;
22111;SDS011;11222;50.872;4.312;2023-07-28T02:42:52;15.45;;;10.18;;
22111;SDS011;11222;50.872;4.312;2023-07-28T02:45:19;15.82;;;10.40;;
22111;SDS011;11222;50.872;4.312;2023-07-28T02:47:45;17.40;;;10.00;;
22111;SDS011;11222;50.872;4.312;2023-07-28T02:50:10;18.45;;;9.60;;
22111;SDS011;11222;50.872;4.312;2023-07-28T02:52:36;16.17;;;10.82;;
22111;SDS011;11222;50.872;4.312;2023-07-28T02:55:01;17.92;;;10.90;;
22111;SDS011;11222;50.872;4.312;2023-07-28T02:57:27;20.75;;;10.55;;
22111;SDS011;11222;50.872;4.312;2023-07-28T02:59:53;17.70;;;11.10;;
22111;SDS011;11222;50.872;4.312;2023-07-28T03:02:18;19.00;;;10.98;;
22111;SDS011;11222;50.872;4.312;2023-07-28T03:04:44;22.27;;;10.45;;
22111;SDS011;11222;50.872;4.312;2023-07-28T03:07:10;22.63;;;10.77;;
22111;SDS011;11222;50.872;4.312;2023-07-28T03:09:35;19.58;;;11.00;;
22111;SDS011;11222;50.872;4.312;2023-07-28T03:12:01;24.05;;;11.60;;
22111;SDS011;11222;50.872;4.312;2023-07-28T03:14:27;17.65;;;10.20;;
22111;SDS011;11222;50.872;4.312;2023-07-28T03:16:54;18.10;;;9.60;;
22111;SDS011;11222;50.872;4.312;2023-07-28T03:19:20;19.38;;;10.55;;
22111;SDS011;11222;50.872;4.312;2023-07-28T03:21:46;17.27;;;9.70;;
22111;SDS011;11222;50.872;4.312;2023-07-28T03:24:12;15.23;;;9.82;;
22111;SDS011;11222;50.872;4.312;2023-07-28T03:26:37;19.35;;;10.15;;
22111;SDS011;11222;50.872;4.312;2023-07-28T03:29:03;15.82;;;10.00;;
22111;SDS011;11222;50.872;4.312;2023-07-28T03:31:29;16.77;;;9.85;;
22111;SDS011;11222;50.872;4.312;2023-07-28T03:33:55;16.80;;;10.15;;
22111;SDS011;11222;50.872;4.312;2023-07-28T03:36:21;13.63;;;9.02;;
22111;SDS011;11222;50.872;4.312;2023-07-28T03:38:46;20.40;;;9.15;;
22111;SDS011;11222;50.872;4.312;2023-07-28T03:41:12;13.10;;;8.57;;
22111;SDS011;11222;50.872;4.312;2023-07-28T03:43:38;14.57;;;8.88;;
22111;SDS011;11222;50.872;4.312;2023-07-28T03:46:05;14.82;;;7.93;;
22111;SDS011;11222;50.872;4.312;2023-07-28T03:48:30;15.30;;;8.02;;
22111;SDS011;11222;50.872;4.312;2023-07-28T03:50:56;15.88;;;7.82;;
22111;SDS011;11222;50.872;4.312;2023-07-28T03:53:22;12.27;;;7.90;;
22111;SDS011;11222;50.872;4.312;2023-07-28T03:55:47;11.25;;;7.60;;
22111;SDS011;11222;50.872;4.312;2023-07-28T03:58:13;15.18;;;7.72;;
22111;SDS011;11222;50.872;4.312;2023-07-28T04:00:39;13.90;;;7.28;;
22111;SDS011;11222;50.872;4.312;2023-07-28T04:03:05;12.95;;;7.30;;
22111;SDS011;11222;50.872;4.312;2023-07-28T04:05:30;11.55;;;7.10;;
22111;SDS011;11222;50.872;4.312;2023-07-28T04:07:56;10.27;;;7.10;;
22111;SDS011;11222;50.872;4.312;2023-07-28T04:10:21;12.50;;;7.07;;
22111;SDS011;11222;50.872;4.312;2023-07-28T04:12:48;12.68;;;6.90;;
22111;SDS011;11222;50.872;4.312;2023-07-28T04:15:13;9.25;;;7.03;;
22111;SDS011;11222;50.872;4.312;2023-07-28T04:17:39;12.50;;;7.00;;
22111;SDS011;11222;50.872;4.312;2023-07-28T04:20:05;10.05;;;6.40;;
22111;SDS011;11222;50.872;4.312;2023-07-28T04:22:31;10.43;;;6.78;;
22111;SDS011;11222;50.872;4.312;2023-07-28T04:24:57;10.38;;;6.43;;
22111;SDS011;11222;50.872;4.312;2023-07-28T04:27:22;9.95;;;7.05;;
22111;SDS011;11222;50.872;4.312;2023-07-28T04:29:48;10.38;;;7.05;;
22111;SDS011;11222;50.872;4.312;2023-07-28T04:32:13;12.30;;;7.50;;
22111;SDS011;11222;50.872;4.312;2023-07-28T04:34:39;9.00;;;7.32;;
22111;SDS011;11222;50.872;4.312;2023-07-28T04:37:05;11.80;;;7.18;;
22111;SDS011;11222;50.872;4.312;2023-07-28T04:39:31;9.98;;;7.63;;
22111;SDS011;11222;50.872;4.312;2023-07-28T04:41:56;13.80;;;7.22;;
22111;SDS011;11222;50.872;4.312;2023-07-28T04:44:22;12.70;;;8.00;;
22111;SDS011;11222;50.872;4.312;2023-07-28T04:46:47;10.90;;;7.88;;
22111;SDS011;11222;50.872;4.312;2023-07-28T04:49:13;10.88;;;7.68;;
22111;SDS011;11222;50.872;4.312;2023-07-28T04:51:39;10.18;;;7.55;;
22111;SDS011;11222;50.872;4.312;2023-07-28T04:54:04;10.05;;;7.57;;
22111;SDS011;11222;50.872;4.312;2023-07-28T04:56:30;10.02;;;7.68;;
22111;SDS011;11222;50.872;4.312;2023-07-28T04:58:56;10.38;;;7.63;;
22111;SDS011;11222;50.872;4.312;2023-07-28T05:01:23;9.27;;;7.05;;
22111;SDS011;11222;50.872;4.312;2023-07-28T05:03:51;10.43;;;7.07;;
22111;SDS011;11222;50.872;4.312;2023-07-28T05:06:16;9.07;;;5.60;;
22111;SDS011;11222;50.872;4.312;2023-07-28T05:08:43;8.23;;;6.10;;
22111;SDS011;11222;50.872;4.312;2023-07-28T05:11:08;8.27;;;5.32;;
22111;SDS011;11222;50.872;4.312;2023-07-28T05:13:34;7.95;;;5.15;;
22111;SDS011;11222;50.872;4.312;2023-07-28T05:15:59;6.68;;;5.15;;
22111;SDS011;11222;50.872;4.312;2023-07-28T05:18:25;6.95;;;4.63;;
22111;SDS011;11222;50.872;4.312;2023-07-28T05:20:51;4.45;;;4.05;;
22111;SDS011;11222;50.872;4.312;2023-07-28T05:23:16;7.13;;;5.13;;
22111;SDS011;11222;50.872;4.312;2023-07-28T05:25:42;4.30;;;3.90;;
22111;SDS011;11222;50.872;4.312;2023-07-28T05:28:07;4.28;;;3.60;;
22111;SDS011;11222;50.872;4.312;2023-07-28T05:30:33;5.05;;;3.70;;
22111;SDS011;11222;50.872;4.312;2023-07-28T05:33:00;3.92;;;3.40;;
22111;SDS011;11222;50.872;4.312;2023-07-28T05:35:26;4.93;;;3.63;;
22111;SDS011;11222;50.872;4.312;2023-07-28T05:37:53;4.68;;;3.83;;
22111;SDS011;11222;50.872;4.312;2023-07-28T05:40:19;3.70;;;2.75;;
22111;SDS011;11222;50.872;4.312;2023-07-28T05:42:45;4.90;;;3.00;;
22111;SDS011;11222;50.872;4.312;2023-07-28T05:45:11;4.47;;;3.17;;
22111;SDS011;11222;50.872;4.312;2023-07-28T05:47:36;4.07;;;2.90;;
22111;SDS011;11222;50.872;4.312;2023-07-28T05:50:02;4.15;;;3.20;;
22111;SDS011;11222;50.872;4.312;2023-07-28T05:52:29;3.20;;;2.90;;
22111;SDS011;11222;50.872;4.312;2023-07-28T05:54:54;5.28;;;2.70;;
22111;SDS011;11222;50.872;4.312;2023-07-28T05:57:20;2.65;;;2.45;;
22111;SDS011;11222;50.872;4.312;2023-07-28T05:59:45;4.43;;;2.80;;
22111;SDS011;11222;50.872;4.312;2023-07-28T06:02:11;5.72;;;2.30;;
22111;SDS011;11222;50.872;4.312;2023-07-28T06:04:37;2.45;;;1.92;;
22111;SDS011;11222;50.872;4.312;2023-07-28T06:07:03;2.20;;;2.00;;
22111;SDS011;11222;50.872;4.312;2023-07-28T06:09:28;1.67;;;1.58;;
22111;SDS011;11222;50.872;4.312;2023-07-28T06:11:54;1.30;;;1.20;;
22111;SDS011;11222;50.872;4.312;2023-07-28T06:14:20;1.33;;;1.17;;
22111;SDS011;11222;50.872;4.312;2023-07-28T06:16:45;1.27;;;1.17;;
22111;SDS011;11222;50.872;4.312;2023-07-28T06:19:11;1.30;;;1.10;;
22111;SDS011;11222;50.872;4.312;2023-07-28T06:21:36;2.08;;;1.70;;
22111;SDS011;11222;50.872;4.312;2023-07-28T06:24:02;2.72;;;1.80;;
22111;SDS011;11222;50.872;4.312;2023-07-28T06:26:28;2.35;;;1.80;;
22111;SDS011;11222;50.872;4.312;2023-07-28T06:28:53;2.00;;;1.88;;
22111;SDS011;11222;50.872;4.312;2023-07-28T06:31:19;2.33;;;2.05;;
22111;SDS011;11222;50.872;4.312;2023-07-28T06:33:46;2.70;;;2.50;;
22111;SDS011;11222;50.872;4.312;2023-07-28T06:36:12;4.35;;;2.15;;
22111;SDS011;11222;50.872;4.312;2023-07-28T06:38:38;2.40;;;2.08;;
22111;SDS011;11222;50.872;4.312;2023-07-28T06:41:04;2.38;;;2.17;;
22111;SDS011;11222;50.872;4.312;2023-07-28T06:43:30;3.33;;;1.98;;
22111;SDS011;11222;50.872;4.312;2023-07-28T06:45:55;2.03;;;1.85;;
22111;SDS011;11222;50.872;4.312;2023-07-28T06:48:21;2.55;;;1.80;;
22111;SDS011;11222;50.872;4.312;2023-07-28T06:50:46;2.05;;;1.83;;
22111;SDS011;11222;50.872;4.312;2023-07-28T06:53:12;1.75;;;1.65;;
22111;SDS011;11222;50.872;4.312;2023-07-28T06:55:38;1.73;;;1.63;;
22111;SDS011;11222;50.872;4.312;2023-07-28T06:58:04;2.20;;;2.00;;
22111;SDS011;11222;50.872;4.312;2023-07-28T07:00:31;1.92;;;1.77;;
22111;SDS011;11222;50.872;4.312;2023-07-28T07:02:56;1.80;;;1.70;;
22111;SDS011;11222;50.872;4.312;2023-07-28T07:05:22;4.53;;;1.80;;
22111;SDS011;11222;50.872;4.312;2023-07-28T07:07:48;1.80;;;1.70;;
22111;SDS011;11222;50.872;4.312;2023-07-28T07:10:14;2.78;;;1.88;;
22111;SDS011;11222;50.872;4.312;2023-07-28T07:12:40;1.95;;;1.70;;
22111;SDS011;11222;50.872;4.312;2023-07-28T07:15:06;2.33;;;2.00;;
22111;SDS011;11222;50.872;4.312;2023-07-28T07:17:32;1.77;;;1.67;;
22111;SDS011;11222;50.872;4.312;2023-07-28T07:19:58;1.92;;;1.73;;
22111;SDS011;11222;50.872;4.312;2023-07-28T07:22:24;2.42;;;2.15;;
22111;SDS011;11222;50.872;4.312;2023-07-28T07:24:49;1.80;;;1.70;;
22111;SDS011;11222;50.872;4.312;2023-07-28T07:27:15;2.08;;;1.60;;
22111;SDS011;11222;50.872;4.312;2023-07-28T07:29:41;1.92;;;1.40;;
22111;SDS011;11222;50.872;4.312;2023-07-28T07:32:06;2.05;;;1.70;;
22111;SDS011;11222;50.872;4.312;2023-07-28T07:34:33;1.58;;;1.48;;
22111;SDS011;11222;50.872;4.312;2023-07-28T07:36:59;1.70;;;1.60;;
22111;SDS011;11222;50.872;4.312;2023-07-28T07:39:25;2.00;;;1.73;;
22111;SDS011;11222;50.872;4.312;2023-07-28T07:41:50;1.65;;;1.55;;
22111;SDS011;11222;50.872;4.312;2023-07-28T07:44:16;1.60;;;1.50;;
22111;SDS011;11222;50.872;4.312;2023-07-28T07:46:42;2.42;;;1.42;;
22111;SDS011;11222;50.872;4.312;2023-07-28T07:49:07;1.67;;;1.58;;
22111;SDS011;11222;50.872;4.312;2023-07-28T07:51:33;3.67;;;1.90;;
22111;SDS011;11222;50.872;4.312;2023-07-28T07:53:59;2.75;;;2.00;;
22111;SDS011;11222;50.872;4.312;2023-07-28T07:56:26;2.58;;;2.30;;
22111;SDS011;11222;50.872;4.312;2023-07-28T07:58:52;3.15;;;2.13;;
22111;SDS011;11222;50.872;4.312;2023-07-28T08:01:18;2.78;;;2.20;;
22111;SDS011;11222;50.872;4.312;2023-07-28T08:03:43;2.58;;;2.25;;
22111;SDS011;11222;50.872;4.312;2023-07-28T08:06:09;2.70;;;2.15;;
22111;SDS011;11222;50.872;4.312;2023-07-28T08:08:36;2.35;;;2.15;;
22111;SDS011;11222;50.872;4.312;2023-07-28T08:11:02;3.55;;;2.78;;
22111;SDS011;11222;50.872;4.312;2023-07-28T08:13:28;3.67;;;2.80;;
22111;SDS011;11222;50.872;4.312;2023-07-28T08:15:54;2.80;;;2.60;;
22111;SDS011;11222;50.872;4.312;2023-07-28T08:18:19;3.70;;;2.50;;
22111;SDS011;11222;50.872;4.312;2023-07-28T08:20:45;7.13;;;4.28;;
22111;SDS011;11222;50.872;4.312;2023-07-28T08:23:11;3.33;;;2.53;;
22111;SDS011;11222;50.872;4.312;2023-07-28T08:25:36;3.72;;;3.03;;
22111;SDS011;11222;50.872;4.312;2023-07-28T08:28:02;7.53;;;6.53;;
22111;SDS011;11222;50.872;4.312;2023-07-28T08:30:29;4.40;;;2.70;;
22111;SDS011;11222;50.872;4.312;2023-07-28T08:32:55;3.28;;;2.67;;
22111;SDS011;11222;50.872;4.312;2023-07-28T08:35:20;4.65;;;2.50;;
22111;SDS011;11222;50.872;4.312;2023-07-28T08:37:46;2.33;;;2.13;;
22111;SDS011;11222;50.872;4.312;2023-07-28T08:40:12;2.33;;;2.13;;
22111;SDS011;11222;50.872;4.312;2023-07-28T08:42:38;4.60;;;2.33;;
22111;SDS011;11222;50.872;4.312;2023-07-28T08:45:05;3.40;;;2.00;;
22111;SDS011;11222;50.872;4.312;2023-07-28T08:47:32;2.72;;;2.10;;
22111;SDS011;11222;50.872;4.312;2023-07-28T08:49:57;2.20;;;1.90;;
22111;SDS011;11222;50.872;4.312;2023-07-28T08:52:23;5.68;;;4.15;;
22111;SDS011;11222;50.872;4.312;2023-07-28T08:54:49;5.10;;;1.92;;
22111;SDS011;11222;50.872;4.312;2023-07-28T08:57:15;2.10;;;1.90;;
22111;SDS011;11222;50.872;4.312;2023-07-28T08:59:41;3.90;;;1.70;;
22111;SDS011;11222;50.872;4.312;2023-07-28T09:02:13;2.15;;;1.40;;
22111;SDS011;11222;50.872;4.312;2023-07-28T09:04:41;1.40;;;1.30;;
22111;SDS011;11222;50.872;4.312;2023-07-28T09:07:08;2.90;;;1.35;;
22111;SDS011;11222;50.872;4.312;2023-07-28T09:09:34;2.25;;;1.40;;
22111;SDS011;11222;50.872;4.312;2023-07-28T09:12:01;2.95;;;1.27;;
22111;SDS011;11222;50.872;4.312;2023-07-28T09:14:28;2.05;;;1.42;;
22111;SDS011;11222;50.872;4.312;2023-07-28T09:16:54;3.00;;;1.63;;
22111;SDS011;11222;50.872;4.312;2023-07-28T09:19:20;1.85;;;1.20;;
22111;SDS011;11222;50.872;4.312;2023-07-28T09:21:56;1.70;;;1.40;;
22111;SDS011;11222;50.872;4.312;2023-07-28T09:24:28;3.20;;;1.17;;
22111;SDS011;11222;50.872;4.312;2023-07-28T09:26:59;1.40;;;1.30;;
22111;SDS011;11222;50.872;4.312;2023-07-28T09:29:26;1.67;;;1.45;;
22111;SDS011;11222;50.872;4.312;2023-07-28T09:31:53;7.53;;;1.40;;
22111;SDS011;11222;50.872;4.312;2023-07-28T09:34:25;1.50;;;1.40;;
22111;SDS011;11222;50.872;4.312;2023-07-28T09:36:55;1.90;;;1.70;;
22111;SDS011;11222;50.872;4.312;2023-07-28T09:39:22;3.00;;;1.20;;
22111;SDS011;11222;50.872;4.312;2023-07-28T09:41:48;1.85;;;1.52;;
22111;SDS011;11222;50.872;4.312;2023-07-28T09:44:14;2.33;;;2.13;;
22111;SDS011;11222;50.872;4.312;2023-07-28T09:46:50;3.80;;;1.73;;
22111;SDS011;11222;50.872;4.312;2023-07-28T09:49:20;3.15;;;1.98;;
22111;SDS011;11222;50.872;4.312;2023-07-28T09:51:52;3.08;;;2.50;;
22111;SDS011;11222;50.872;4.312;2023-07-28T09:54:27;2.63;;;2.40;;
22111;SDS011;11222;50.872;4.312;2023-07-28T09:56:58;4.03;;;3.30;;
22111;SDS011;11222;50.872;4.312;2023-07-28T09:59:37;3.83;;;3.10;;
22111;SDS011;11222;50.872;4.312;2023-07-28T10:02:04;3.65;;;3.33;;
22111;SDS011;11222;50.872;4.312;2023-07-28T10:04:31;5.88;;;4.00;;
22111;SDS011;11222;50.872;4.312;2023-07-28T10:06:57;4.72;;;3.95;;
22111;SDS011;11222;50.872;4.312;2023-07-28T10:09:25;8.60;;;4.70;;
22111;SDS011;11222;50.872;4.312;2023-07-28T10:11:52;6.50;;;4.55;;
22111;SDS011;11222;50.872;4.312;2023-07-28T10:16:56;5.35;;;3.90;;
22111;SDS011;11222;50.872;4.312;2023-07-28T10:19:26;4.00;;;3.55;;
22111;SDS011;11222;50.872;4.312;2023-07-28T10:21:58;5.88;;;3.70;;
22111;SDS011;11222;50.872;4.312;2023-07-28T10:30:02;2.75;;;1.98;;
22111;SDS011;11222;50.872;4.312;2023-07-28T10:32:39;5.30;;;2.20;;
22111;SDS011;11222;50.872;4.312;2023-07-28T10:35:09;2.47;;;2.28;;
22111;SDS011;11222;50.872;4.312;2023-07-28T10:37:38;3.05;;;1.80;;
22111;SDS011;11222;50.872;4.312;2023-07-28T10:42:53;2.17;;;1.70;;
22111;SDS011;11222;50.872;4.312;2023-07-28T10:45:19;4.55;;;1.80;;
22111;SDS011;11222;50.872;4.312;2023-07-28T10:47:48;3.08;;;1.75;;
22111;SDS011;11222;50.872;4.312;2023-07-28T10:50:14;3.88;;;2.33;;
22111;SDS011;11222;50.872;4.312;2023-07-28T10:52:41;3.40;;;2.55;;
22111;SDS011;11222;50.872;4.312;2023-07-28T10:55:17;3.15;;;2.80;;
22111;SDS011;11222;50.872;4.312;2023-07-28T10:57:45;3.38;;;3.08;;
22111;SDS011;11222;50.872;4.312;2023-07-28T11:00:14;4.70;;;3.65;;
22111;SDS011;11222;50.872;4.312;2023-07-28T11:02:44;5.60;;;5.10;;
22111;SDS011;11222;50.872;4.312;2023-07-28T11:05:11;6.10;;;5.60;;
22111;SDS011;11222;50.872;4.312;2023-07-28T11:07:43;7.00;;;5.40;;
22111;SDS011;11222;50.872;4.312;2023-07-28T11:10:12;6.10;;;5.50;;
22111;SDS011;11222;50.872;4.312;2023-07-28T11:12:42;5.95;;;5.35;;
22111;SDS011;11222;50.872;4.312;2023-07-28T11:15:09;5.30;;;4.70;;
22111;SDS011;11222;50.872;4.312;2023-07-28T11:17:39;6.10;;;4.68;;
22111;SDS011;11222;50.872;4.312;2023-07-28T11:22:52;8.07;;;6.18;;
22111;SDS011;11222;50.872;4.312;2023-07-28T11:25:20;6.18;;;5.57;;
22111;SDS011;11222;50.872;4.312;2023-07-28T11:27:47;5.90;;;5.25;;
22111;SDS011;11222;50.872;4.312;2023-07-28T11:30:13;5.90;;;5.40;;
22111;SDS011;11222;50.872;4.312;2023-07-28T11:32:42;5.75;;;5.25;;
22111;SDS011;11222;50.872;4.312;2023-07-28T11:35:10;7.25;;;5.07;;
22111;SDS011;11222;50.872;4.312;2023-07-28T11:37:37;5.18;;;4.72;;
22111;SDS011;11222;50.872;4.312;2023-07-28T11:40:05;5.05;;;4.55;;
22111;SDS011;11222;50.872;4.312;2023-07-28T11:42:45;4.82;;;3.85;;
22111;SDS011;11222;50.872;4.312;2023-07-28T11:45:16;4.07;;;3.53;;
22111;SDS011;11222;50.872;4.312;2023-07-28T11:47:54;3.88;;;3.15;;
22111;SDS011;11222;50.872;4.312;2023-07-28T11:50:29;4.57;;;2.97;;
22111;SDS011;11222;50.872;4.312;2023-07-28T11:52:58;5.75;;;2.70;;
22111;SDS011;11222;50.872;4.312;2023-07-28T11:55:24;3.63;;;2.67;;
22111;SDS011;11222;50.872;4.312;2023-07-28T11:57:51;2.90;;;2.70;;
22111;SDS011;11222;50.872;4.312;2023-07-28T12:00:18;2.83;;;2.63;;
22111;SDS011;11222;50.872;4.312;2023-07-28T12:02:59;11.80;;;2.83;;
22111;SDS011;11222;50.872;4.312;2023-07-28T12:05:34;2.70;;;2.50;;
22111;SDS011;11222;50.872;4.312;2023-07-28T12:08:01;4.45;;;2.90;;
22111;SDS011;11222;50.872;4.312;2023-07-28T12:10:30;2.83;;;2.63;;
22111;SDS011;11222;50.872;4.312;2023-07-28T12:12:57;3.65;;;2.70;;
22111;SDS011;11222;50.872;4.312;2023-07-28T12:15:28;3.63;;;3.10;;
22111;SDS011;11222;50.872;4.312;2023-07-28T12:18:01;3.67;;;2.90;;
22111;SDS011;11222;50.872;4.312;2023-07-28T12:20:46;2.90;;;2.70;;
22111;SDS011;11222;50.872;4.312;2023-07-28T12:23:15;3.38;;;2.75;;
22111;SDS011;11222;50.872;4.312;2023-07-28T12:25:45;3.00;;;2.70;;
22111;SDS011;11222;50.872;4.312;2023-07-28T12:28:11;4.05;;;2.70;;
22111;SDS011;11222;50.872;4.312;2023-07-28T12:30:37;4.43;;;3.17;;
22111;SDS011;11222;50.872;4.312;2023-07-28T12:33:04;3.80;;;2.90;;
22111;SDS011;11222;50.872;4.312;2023-07-28T12:35:30;3.13;;;2.88;;
22111;SDS011;11222;50.872;4.312;2023-07-28T12:37:58;3.30;;;3.10;;
22111;SDS011;11222;50.872;4.312;2023-07-28T12:40:25;3.65;;;3.33;;
22111;SDS011;11222;50.872;4.312;2023-07-28T12:42:53;3.00;;;2.80;;
22111;SDS011;11222;50.872;4.312;2023-07-28T12:45:19;3.22;;;2.90;;
22111;SDS011;11222;50.872;4.312;2023-07-28T12:47:46;3.08;;;2.63;;
22111;SDS011;11222;50.872;4.312;2023-07-28T12:50:12;3.10;;;2.80;;
22111;SDS011;11222;50.872;4.312;2023-07-28T12:52:38;3.40;;;2.90;;
22111;SDS011;11222;50.872;4.312;2023-07-28T12:55:03;5.78;;;2.70;;
22111;SDS011;11222;50.872;4.312;2023-07-28T12:57:30;2.80;;;2.60;;
22111;SDS011;11222;50.872;4.312;2023-07-28T12:59:57;3.08;;;2.88;;
22111;SDS011;11222;50.872;4.312;2023-07-28T13:02:22;3.35;;;3.00;;
22111;SDS011;11222;50.872;4.312;2023-07-28T13:04:48;3.42;;;2.63;;
22111;SDS011;11222;50.872;4.312;2023-07-28T13:07:14;3.08;;;2.80;;
22111;SDS011;11222;50.872;4.312;2023-07-28T13:09:39;3.20;;;2.90;;
22111;SDS011;11222;50.872;4.312;2023-07-28T13:12:07;2.75;;;2.55;;
22111;SDS011;11222;50.872;4.312;2023-07-28T13:14:33;3.70;;;2.80;;
22111;SDS011;11222;50.872;4.312;2023-07-28T13:16:59;3.35;;;2.70;;
22111;SDS011;11222;50.872;4.312;2023-07-28T13:19:25;3.45;;;2.97;;
22111;SDS011;11222;50.872;4.312;2023-07-28T13:21:50;3.63;;;2.97;;
22111;SDS011;11222;50.872;4.312;2023-07-28T13:24:16;3.20;;;2.90;;
22111;SDS011;11222;50.872;4.312;2023-07-28T13:26:42;4.45;;;2.88;;
22111;SDS011;11222;50.872;4.312;2023-07-28T13:29:07;4.25;;;3.00;;
22111;SDS011;11222;50.872;4.312;2023-07-28T13:31:33;2.72;;;2.53;;
22111;SDS011;11222;50.872;4.312;2023-07-28T13:33:59;4.95;;;3.17;;
22111;SDS011;11222;50.872;4.312;2023-07-28T13:36:24;4.07;;;2.60;;
22111;SDS011;11222;50.872;4.312;2023-07-28T13:38:50;3.03;;;2.47;;
22111;SDS011;11222;50.872;4.312;2023-07-28T13:41:16;2.60;;;2.40;;
22111;SDS011;11222;50.872;4.312;2023-07-28T13:43:41;2.88;;;2.50;;
22111;SDS011;11222;50.872;4.312;2023-07-28T13:46:07;2.50;;;2.30;;
22111;SDS011;11222;50.872;4.312;2023-07-28T13:48:33;2.53;;;2.33;;
22111;SDS011;11222;50.872;4.312;2023-07-28T13:51:01;2.42;;;2.22;;
22111;SDS011;11222;50.872;4.312;2023-07-28T13:53:27;3.83;;;2.35;;
22111;SDS011;11222;50.872;4.312;2023-07-28T13:55:53;2.60;;;2.40;;
22111;SDS011;11222;50.872;4.312;2023-07-28T13:58:20;2.50;;;2.30;;
22111;SDS011;11222;50.872;4.312;2023-07-28T14:00:46;3.08;;;2.50;;
22111;SDS011;11222;50.872;4.312;2023-07-28T14:03:12;3.00;;;2.70;;
22111;SDS011;11222;50.872;4.312;2023-07-28T14:05:39;2.83;;;2.47;;
22111;SDS011;11222;50.872;4.312;2023-07-28T14:08:05;4.50;;;2.63;;
22111;SDS011;11222;50.872;4.312;2023-07-28T14:10:30;3.58;;;2.55;;
22111;SDS011;11222;50.872;4.312;2023-07-28T14:12:57;2.90;;;2.60;;
22111;SDS011;11222;50.872;4.312;2023-07-28T14:15:23;3.42;;;2.95;;
22111;SDS011;11222;50.872;4.312;2023-07-28T14:17:49;3.40;;;2.70;;
22111;SDS011;11222;50.872;4.312;2023-07-28T14:20:15;2.83;;;2.53;;
22111;SDS011;11222;50.872;4.312;2023-07-28T14:22:40;6.93;;;2.58;;
22111;SDS011;11222;50.872;4.312;2023-07-28T14:25:06;3.03;;;2.72;;
22111;SDS011;11222;50.872;4.312;2023-07-28T14:27:32;3.10;;;2.80;;
22111;SDS011;11222;50.872;4.312;2023-07-28T14:29:58;2.88;;;2.60;;
22111;SDS011;11222;50.872;4.312;2023-07-28T14:32:23;3.95;;;2.60;;
22111;SDS011;11222;50.872;4.312;2023-07-28T14:34:49;2.97;;;2.78;;
22111;SDS011;11222;50.872;4.312;2023-07-28T14:37:15;2.85;;;2.65;;
22111;SDS011;11222;50.872;4.312;2023-07-28T14:39:40;3.15;;;2.72;;
22111;SDS011;11222;50.872;4.312;2023-07-28T14:42:06;3.05;;;2.55;;
22111;SDS011;11222;50.872;4.312;2023-07-28T14:44:32;3.00;;;2.80;;
22111;SDS011;11222;50.872;4.312;2023-07-28T14:46:57;3.63;;;2.70;;
22111;SDS011;11222;50.872;4.312;2023-07-28T14:49:23;3.08;;;2.78;;
22111;SDS011;11222;50.872;4.312;2023-07-28T14:51:52;3.45;;;2.75;;
22111;SDS011;11222;50.872;4.312;2023-07-28T14:54:21;4.28;;;2.80;;